Woodland Park, Colorado
Current Conditions -  °F | °C
As of 7:58 AM on Thursday 23 Oct 2014 (Local Time) from KAFF Reporting Station
Clear Clear  
Wind Chill: 33°   Ceiling: Unl
Heat Index: 38°   Visibility: 10mi
Dew Point: 30°   Wind: 8mph
Humidity: 73%   Direction: 340°NNW
Pressure: 30.24"   Gusts: NA
Location:  38.99°N, 105.05°W
Report Text: KAFF 231358Z AUTO 34007KT 10SM CLR 04/M01 A3024 RMK AO2 SLP220 T00361009 $
Loading
Personal Weather Stations






























Interactive Weather Map
Tropical Storm Tracking
New forecast layout! Learn more

10-Day Weather Forecast

Advertisements
Track Severe Weather on mobile